Les Masies de Roda





Hora UTC 05:35
Temperatura 14.2 ºC
Suelo 15 cm 14.1 ºC
Subsuelo 10 cm 15.7 ºC
Humedad 95.8 %
Presión 1016.9 hPa
Pluja 0.0 mm
Velocidad viento 0.0 km/h
Dirección viento NNE
Radiación solar 52.8 W/m²

Datos diarios 2020-05-30



Hora UTC (invierno +1h; verano +2h)
Temperatura (ºC) Humedad (%) Presión (hPa) Velocidad viento (km/h) Precipitación (mm) Radiación solar (W/m²)
Hora UTC Aire Suelo 15 cm Subsuelo 10 cm Humedad Presión Vel. Dir. Vel. Max Dir. Intent. máx 5 min. Rad. Sol.
00:05 13.7 12.8 15.4 98.5 1016.8 0.0 NNE 0.0 SSW 0.0 0.1
00:10 13.7 12.6 15.4 98.4 1016.8 0.0 NNE 0.0 SW 0.0 0.1
00:15 13.6 12.4 15.4 98.4 1016.8 0.4 SSW 3.4 S 0.0 0.1
00:20 13.6 12.3 15.3 98.4 1016.8 0.8 SW 3.4 SW 0.0 0.1
00:25 13.5 12.2 15.3 98.3 1016.8 0.2 SW 6.1 SW 0.0 0.1
00:30 13.4 12.1 15.3 98.3 1016.9 2.9 SW 6.1 SW 0.0 0.1
00:35 13.4 12.0 15.2 98.3 1016.8 1.4 S 6.1 SSE 0.0 0.1
00:40 13.3 11.8 15.2 98.2 1016.9 1.1 SSE 6.1 SSE 0.0 0.1
00:45 13.2 11.6 15.1 98.2 1016.9 0.0 NNE 0.0 S 0.0 0.1
00:50 13.2 11.4 15.1 98.3 1016.8 0.2 E 3.4 E 0.0 0.1
00:55 13.2 11.5 15.1 98.4 1016.9 1.0 SE 6.1 SE 0.0 0.1
01:00 13.4 11.9 15.1 98.5 1016.8 0.9 ESE 6.1 E 0.0 0.1
01:05 13.4 12.2 15.1 98.5 1016.8 1.2 ESE 3.4 ESE 0.0 0.1
01:10 13.4 12.4 15.1 98.6 1016.9 0.0 NNE 0.0 ESE 0.0 0.1
01:15 13.3 12.6 15.1 98.5 1016.9 2.1 N 6.1 SE 0.0 0.1
01:20 13.3 12.7 15.2 98.7 1016.9 0.2 NNW 3.4 NNW 0.0 0.1
01:25 13.3 12.9 15.2 98.7 1016.9 0.0 NNE 0.0 NNW 0.0 0.1
01:30 13.3 12.9 15.2 98.8 1016.9 0.0 NNE 0.0 WNW 0.0 0.1
01:35 13.3 13.0 15.2 98.8 1016.9 0.0 NNE 0.0 WNW 0.0 0.1
01:40 13.4 13.1 15.3 98.9 1016.9 0.0 NNE 0.0 WNW 0.0 0.1
01:45 13.5 13.2 15.3 99.0 1016.9 0.0 NNE 0.0 SW 0.0 0.1
01:50 13.6 13.2 15.3 99.0 1016.9 0.2 SE 3.4 SE 0.0 0.1
01:55 13.7 13.3 15.3 99.1 1017.0 0.8 S 6.1 SSW 0.0 0.1
02:00 13.8 13.4 15.4 99.1 1016.9 0.0 NNE 0.0 SSW 0.0 0.1
02:05 13.7 13.5 15.4 99.1 1017.0 0.1 SSW 3.4 SSW 0.0 0.1
02:10 13.7 13.5 15.4 99.1 1016.9 2.6 S 6.1 SSE 0.0 0.1
02:15 13.8 13.5 15.4 99.2 1016.9 0.8 S 6.1 SSE 0.0 0.1
02:20 13.8 13.5 15.4 99.1 1016.9 0.0 NNE 0.0 S 0.0 0.1
02:25 13.8 13.6 15.4 99.1 1016.9 0.0 NNE 0.0 ENE 0.0 0.1
02:30 13.8 13.6 15.4 99.1 1016.9 2.4 S 6.1 SSW 0.0 0.1
02:35 13.8 13.6 15.4 99.1 1016.9 0.0 NNE 0.0 SE 0.0 0.1
02:40 13.8 13.5 15.5 99.0 1017.0 0.0 NNE 0.0 ESE 0.0 0.1
02:45 13.8 13.5 15.5 99.0 1017.0 0.2 ENE 6.1 ENE 0.0 0.1
02:50 13.7 13.5 15.5 99.0 1017.0 1.1 ENE 6.1 ENE 0.0 0.1
02:55 13.7 13.4 15.5 98.9 1016.9 1.4 NE 6.1 ENE 0.0 0.1
03:00 13.7 13.4 15.5 98.9 1016.9 0.0 NNE 0.0 NE 0.0 0.1
03:05 13.7 13.5 15.5 98.9 1016.9 0.1 NE 3.4 NE 0.0 0.1
03:10 13.7 13.5 15.5 98.9 1016.8 0.0 NNE 0.0 NE 0.0 0.1
03:15 13.7 13.4 15.5 98.8 1016.8 0.0 NNE 0.0 NE 0.0 0.1
03:20 13.7 13.4 15.5 98.8 1016.9 0.0 NNE 0.0 NE 0.0 0.1
03:25 13.8 13.4 15.5 98.8 1016.9 0.0 NNE 0.0 NNW 0.0 0.1
03:30 13.9 13.4 15.5 98.8 1016.9 0.0 NNE 0.0 NNE 0.0 0.1
03:35 13.9 13.5 15.5 98.7 1016.8 1.8 NE 6.1 NE 0.0 0.1
03:40 13.8 13.6 15.5 98.7 1016.8 2.6 ENE 6.1 NE 0.0 0.1
03:45 13.9 13.6 15.5 98.6 1016.9 2.3 ENE 6.1 ENE 0.0 0.1
03:50 13.9 13.6 15.5 98.7 1016.9 0.0 NNE 0.0 ENE 0.0 0.1
03:55 13.9 13.6 15.5 98.6 1016.9 3.0 ENE 8.8 ENE 0.0 0.1
04:00 13.8 13.6 15.5 98.5 1016.8 3.5 ENE 8.8 NE 0.0 0.2
04:05 13.7 13.5 15.5 98.6 1016.8 5.0 ENE 8.8 ENE 0.0 0.3
04:10 13.6 13.4 15.5 98.6 1016.8 1.1 ENE 8.8 NE 0.0 0.5
04:15 13.6 13.4 15.5 98.6 1016.8 0.0 NNE 0.0 NE 0.0 1.0
04:20 13.7 13.4 15.5 98.7 1016.8 0.0 NNE 0.0 NE 0.0 1.4
04:25 13.7 13.4 15.5 98.6 1016.8 0.0 NNE 0.0 ENE 0.0 2.2
04:30 13.6 13.3 15.5 98.5 1016.8 0.0 NNE 0.0 NE 0.0 3.3
04:35 13.6 13.3 15.5 98.4 1016.8 0.0 NNE 0.0 NE 0.0 5.0
04:40 13.7 13.4 15.5 98.3 1016.8 0.0 NNE 0.0 NE 0.0 5.5
04:45 13.7 13.4 15.5 98.2 1016.8 0.0 NNE 0.0 ENE 0.0 5.9
04:50 13.8 13.4 15.5 98.1 1016.8 0.0 NNE 0.0 E 0.0 7.3
04:55 13.8 13.5 15.5 98.0 1016.8 0.0 NNE 0.0 ENE 0.0 11.1
05:00 13.9 13.6 15.5 97.9 1016.8 1.5 NE 6.1 NE 0.0 17.8
05:05 13.9 13.6 15.5 97.6 1016.8 1.2 ENE 6.1 ENE 0.0 26.8
05:10 13.9 13.7 15.6 97.4 1016.8 0.0 NNE 0.0 ENE 0.0 29.4
05:15 14.0 13.8 15.6 97.1 1016.9 0.0 NNE 0.0 E 0.0 27.4
05:20 14.0 13.8 15.6 96.8 1016.9 0.0 NNE 0.0 E 0.0 29.0
05:25 14.1 13.9 15.6 96.5 1016.9 0.0 NNE 0.0 E 0.0 42.2
05:30 14.1 14.0 15.7 96.1 1016.9 0.0 NNE 0.0 E 0.0 47.6
05:35 14.2 14.1 15.7 95.8 1016.9 0.0 NNE 0.0 E 0.0 52.8
Máxima 14.2 14.1 15.7 99.2 1017.0 5.0 ENE 8.8 NE 0.0 52.8
Mínima 13.1 11.4 15.1 95.8 1016.8
Total 0.0